createdAt,value
2018-01-17T00:00:05.057Z,0
2018-01-17T00:01:04.796Z,0
2018-01-17T00:02:05.026Z,0
2018-01-17T00:03:04.825Z,0
2018-01-17T00:04:05.081Z,0
2018-01-17T00:05:05.321Z,0
2018-01-17T00:06:04.821Z,0
2018-01-17T00:07:04.557Z,0
2018-01-17T00:08:05.052Z,0
2018-01-17T00:09:05.044Z,0
2018-01-17T00:10:04.778Z,0
2018-01-17T00:11:05.021Z,0
2018-01-17T00:12:04.768Z,0
2018-01-17T00:13:05.159Z,0
2018-01-17T00:14:04.942Z,0
2018-01-17T00:15:04.940Z,0
2018-01-17T00:16:04.928Z,0
2018-01-17T00:17:04.950Z,0
2018-01-17T00:18:04.657Z,0
2018-01-17T00:19:05.157Z,0
2018-01-17T00:20:05.165Z,0
2018-01-17T00:21:04.886Z,0
2018-01-17T00:22:05.137Z,0
2018-01-17T00:23:04.895Z,0
2018-01-17T00:24:04.875Z,0
2018-01-17T00:25:04.877Z,0
2018-01-17T00:26:04.854Z,0
2018-01-17T00:27:05.109Z,0
2018-01-17T00:28:04.839Z,0
2018-01-17T00:29:04.324Z,0
2018-01-17T00:30:04.830Z,0
2018-01-17T00:31:04.831Z,0
2018-01-17T00:32:04.824Z,0
2018-01-17T00:33:04.815Z,0
2018-01-17T00:34:04.796Z,0
2018-01-17T00:35:04.534Z,0
2018-01-17T00:36:04.802Z,0
2018-01-17T00:37:04.782Z,0
2018-01-17T00:38:04.517Z,0
2018-01-17T00:39:04.755Z,0
2018-01-17T00:40:04.757Z,0
2018-01-17T00:41:04.744Z,0
2018-01-17T00:42:04.989Z,0
2018-01-17T00:43:05.132Z,0
2018-01-17T00:44:04.730Z,0
2018-01-17T00:45:04.719Z,0
2018-01-17T00:46:04.781Z,0
2018-01-17T00:47:04.966Z,0
2018-01-17T00:48:04.189Z,0
2018-01-17T00:49:04.948Z,0
2018-01-17T00:50:04.678Z,0
2018-01-17T00:51:04.416Z,0
2018-01-17T00:52:04.661Z,0
2018-01-17T00:53:04.654Z,0
2018-01-17T00:54:04.392Z,0
2018-01-17T00:55:04.388Z,0
2018-01-17T00:56:04.387Z,0
2018-01-17T00:57:04.381Z,0
2018-01-17T00:58:04.617Z,0
2018-01-17T00:59:04.616Z,0
2018-01-17T01:00:04.859Z,0
2018-01-17T01:01:04.595Z,0
2018-01-17T01:02:04.142Z,0
2018-01-17T01:03:04.326Z,0
2018-01-17T01:04:04.589Z,0
2018-01-17T01:05:04.565Z,0
2018-01-17T01:06:04.311Z,0
2018-01-17T01:07:04.570Z,0
2018-01-17T01:08:04.297Z,0
2018-01-17T01:09:04.288Z,0
2018-01-17T01:10:04.274Z,0
2018-01-17T01:11:04.525Z,0
2018-01-17T01:12:04.267Z,0
2018-01-17T01:13:04.656Z,0
2018-01-17T01:14:04.249Z,0
2018-01-17T01:15:04.521Z,0
2018-01-17T01:16:04.235Z,0
2018-01-17T01:17:04.484Z,0
2018-01-17T01:18:04.737Z,0
2018-01-17T01:19:03.960Z,0
2018-01-17T01:20:04.713Z,0
2018-01-17T01:21:04.207Z,0
2018-01-17T01:22:04.211Z,0
2018-01-17T01:23:03.927Z,0
2018-01-17T01:24:04.166Z,0
2018-01-17T01:25:04.415Z,0
2018-01-17T01:26:04.661Z,0
2018-01-17T01:27:04.411Z,0
2018-01-17T01:28:04.159Z,0
2018-01-17T01:29:04.392Z,0
2018-01-17T01:30:04.709Z,0
2018-01-17T01:31:04.433Z,0
2018-01-17T01:32:04.695Z,0
2018-01-17T01:33:04.412Z,0
2018-01-17T01:34:04.411Z,0
2018-01-17T01:35:04.148Z,0
2018-01-17T01:36:04.133Z,0
2018-01-17T01:37:04.656Z,0
2018-01-17T01:38:04.381Z,0
2018-01-17T01:39:04.334Z,0
2018-01-17T01:40:04.575Z,0
2018-01-17T01:41:04.545Z,0
2018-01-17T01:42:04.360Z,0
2018-01-17T01:43:04.608Z,0
2018-01-17T01:44:04.737Z,0
2018-01-17T01:45:04.345Z,0
2018-01-17T01:46:04.070Z,0
2018-01-17T01:47:04.311Z,0
2018-01-17T01:48:04.040Z,0
2018-01-17T01:49:04.052Z,0
2018-01-17T01:50:04.293Z,0
2018-01-17T01:51:04.534Z,0
2018-01-17T01:52:04.299Z,0
2018-01-17T01:53:04.529Z,0
2018-01-17T01:54:04.516Z,0
2018-01-17T01:55:04.253Z,0
2018-01-17T01:56:04.256Z,0
2018-01-17T01:57:04.258Z,0
2018-01-17T01:58:04.539Z,0
2018-01-17T01:59:04.225Z,0
2018-01-17T02:00:04.229Z,0
2018-01-17T02:01:03.946Z,0
2018-01-17T02:02:04.195Z,0
2018-01-17T02:03:04.187Z,0
2018-01-17T02:04:04.180Z,0
2018-01-17T02:05:04.434Z,0
2018-01-17T02:06:04.177Z,0
2018-01-17T02:07:04.411Z,0
2018-01-17T02:08:04.160Z,0
2018-01-17T02:09:04.157Z,0
2018-01-17T02:10:04.141Z,0
2018-01-17T02:11:04.130Z,0
2018-01-17T02:12:04.458Z,0
2018-01-17T02:13:04.121Z,0
2018-01-17T02:14:04.511Z,0
2018-01-17T02:15:04.107Z,0
2018-01-17T02:16:04.348Z,0
2018-01-17T02:17:04.087Z,0
2018-01-17T02:18:03.825Z,0
2018-01-17T02:19:04.016Z,0
2018-01-17T02:20:03.795Z,0
2018-01-17T02:21:03.999Z,0
2018-01-17T02:22:04.245Z,0
2018-01-17T02:23:04.244Z,0
2018-01-17T02:24:03.986Z,0
2018-01-17T02:25:03.982Z,0
2018-01-17T02:26:03.961Z,0
2018-01-17T02:27:04.216Z,0
2018-01-17T02:28:03.938Z,0
2018-01-17T02:29:04.189Z,0
2018-01-17T02:30:03.931Z,0
2018-01-17T02:31:04.191Z,0
2018-01-17T02:32:03.908Z,0
2018-01-17T02:33:03.655Z,0
2018-01-17T02:34:03.945Z,0
2018-01-17T02:35:03.896Z,0
2018-01-17T02:36:03.881Z,0
2018-01-17T02:37:04.136Z,0
2018-01-17T02:38:03.616Z,0
2018-01-17T02:39:03.360Z,0
2018-01-17T02:40:04.108Z,0
2018-01-17T02:41:04.106Z,0
2018-01-17T02:42:04.099Z,0
2018-01-17T02:43:03.841Z,0
2018-01-17T02:44:04.222Z,0
2018-01-17T02:45:03.815Z,0
2018-01-17T02:46:04.069Z,0
2018-01-17T02:47:04.052Z,0
2018-01-17T02:48:03.291Z,0
2018-01-17T02:49:04.043Z,0
2018-01-17T02:50:03.777Z,0
2018-01-17T02:51:03.515Z,0
2018-01-17T02:52:03.764Z,0
2018-01-17T02:53:03.756Z,0
2018-01-17T02:54:04.013Z,0
2018-01-17T02:55:03.747Z,0
2018-01-17T02:56:03.750Z,0
2018-01-17T02:57:03.725Z,0
2018-01-17T02:58:03.465Z,0
2018-01-17T02:59:03.956Z,0
2018-01-17T03:00:03.697Z,0
2018-01-17T03:01:03.453Z,0
2018-01-17T03:02:03.682Z,0
2018-01-17T03:03:03.932Z,0
2018-01-17T03:04:03.664Z,0
2018-01-17T03:05:03.909Z,0
2018-01-17T03:06:03.657Z,0
2018-01-17T03:07:03.899Z,0
2018-01-17T03:08:03.898Z,0
2018-01-17T03:09:03.872Z,0
2018-01-17T03:10:03.364Z,0
2018-01-17T03:11:03.354Z,0
2018-01-17T03:12:03.848Z,0
2018-01-17T03:13:03.342Z,0
2018-01-17T03:14:03.735Z,0
2018-01-17T03:15:03.831Z,0
2018-01-17T03:16:03.820Z,0
2018-01-17T03:17:03.572Z,0
2018-01-17T03:18:03.810Z,0
2018-01-17T03:19:03.795Z,0
2018-01-17T03:20:03.049Z,0
2018-01-17T03:21:03.779Z,0
2018-01-17T03:22:03.286Z,0
2018-01-17T03:23:03.836Z,0
2018-01-17T03:24:03.514Z,0
2018-01-17T03:25:03.246Z,0
2018-01-17T03:26:03.498Z,0
2018-01-17T03:27:03.489Z,0
2018-01-17T03:28:03.489Z,0
2018-01-17T03:29:03.714Z,0
2018-01-17T03:30:03.472Z,0
2018-01-17T03:31:03.704Z,0
2018-01-17T03:32:03.698Z,0
2018-01-17T03:33:03.190Z,0
2018-01-17T03:34:03.627Z,0
2018-01-17T03:35:02.918Z,0
2018-01-17T03:36:03.412Z,0
2018-01-17T03:37:03.647Z,0
2018-01-17T03:38:03.393Z,0
2018-01-17T03:39:03.143Z,0
2018-01-17T03:40:03.128Z,0
2018-01-17T03:41:03.118Z,0
2018-01-17T03:42:03.622Z,0
2018-01-17T03:43:03.351Z,0
2018-01-17T03:44:03.746Z,0
2018-01-17T03:45:03.092Z,0
2018-01-17T03:46:03.335Z,0
2018-01-17T03:47:02.818Z,0
2018-01-17T03:48:03.570Z,0
2018-01-17T03:49:03.310Z,0
2018-01-17T03:50:03.551Z,0
2018-01-17T03:51:03.051Z,0
2018-01-17T03:52:03.275Z,0
2018-01-17T03:53:02.766Z,0
2018-01-17T03:54:03.329Z,0
2018-01-17T03:55:03.516Z,0
2018-01-17T03:56:02.999Z,0
2018-01-17T03:57:03.237Z,0
2018-01-17T03:58:03.519Z,0
2018-01-17T03:59:03.001Z,0
2018-01-17T04:00:02.970Z,0
2018-01-17T04:01:03.461Z,0
2018-01-17T04:02:03.208Z,0
2018-01-17T04:03:03.221Z,0
2018-01-17T04:04:02.930Z,0
2018-01-17T04:05:03.491Z,0
2018-01-17T04:06:03.174Z,0
2018-01-17T04:07:03.170Z,0
2018-01-17T04:08:03.161Z,0
2018-01-17T04:09:03.199Z,0
2018-01-17T04:10:03.133Z,0
2018-01-17T04:11:03.124Z,0
2018-01-17T04:12:03.380Z,0
2018-01-17T04:13:03.126Z,0
2018-01-17T04:14:03.102Z,0
2018-01-17T04:15:02.843Z,0
2018-01-17T04:16:03.092Z,0
2018-01-17T04:17:03.082Z,0
2018-01-17T04:18:03.323Z,0
2018-01-17T04:19:03.066Z,0
2018-01-17T04:20:03.310Z,0
2018-01-17T04:21:03.046Z,0
2018-01-17T04:22:02.792Z,0
2018-01-17T04:23:03.276Z,0
2018-01-17T04:24:02.772Z,0
2018-01-17T04:25:02.509Z,0
2018-01-17T04:26:02.758Z,0
2018-01-17T04:27:02.995Z,0
2018-01-17T04:28:02.986Z,0
2018-01-17T04:29:02.980Z,0
2018-01-17T04:30:02.728Z,0
2018-01-17T04:31:02.716Z,0
2018-01-17T04:32:02.951Z,0
2018-01-17T04:33:02.438Z,0
2018-01-17T04:34:03.191Z,0
2018-01-17T04:35:02.925Z,0
2018-01-17T04:36:02.924Z,0
2018-01-17T04:37:03.155Z,0
2018-01-17T04:38:02.909Z,0
2018-01-17T04:39:02.634Z,0
2018-01-17T04:40:02.624Z,0
2018-01-17T04:41:03.122Z,0
2018-01-17T04:42:02.912Z,0
2018-01-17T04:43:02.861Z,0
2018-01-17T04:44:02.341Z,0
2018-01-17T04:45:03.255Z,0
2018-01-17T04:46:02.839Z,0
2018-01-17T04:47:03.065Z,0
2018-01-17T04:48:02.807Z,0
2018-01-17T04:49:02.555Z,0
2018-01-17T04:50:02.837Z,0
2018-01-17T04:51:02.773Z,0
2018-01-17T04:52:02.512Z,0
2018-01-17T04:53:02.753Z,0
2018-01-17T04:54:02.997Z,0
2018-01-17T04:55:02.994Z,0
2018-01-17T04:56:02.743Z,0
2018-01-17T04:57:02.728Z,0
2018-01-17T04:58:02.990Z,0
2018-01-17T04:59:02.710Z,0
2018-01-17T05:00:02.939Z,0
2018-01-17T05:01:02.987Z,0
2018-01-17T05:02:02.946Z,0
2018-01-17T05:03:02.698Z,0
2018-01-17T05:04:02.907Z,0
2018-01-17T05:05:02.397Z,0
2018-01-17T05:06:02.720Z,0
2018-01-17T05:07:02.634Z,0
2018-01-17T05:08:02.628Z,0
2018-01-17T05:09:02.625Z,0
2018-01-17T05:10:02.607Z,0
2018-01-17T05:11:02.606Z,0
2018-01-17T05:12:02.350Z,0
2018-01-17T05:13:02.840Z,0
2018-01-17T05:14:02.567Z,0
2018-01-17T05:15:02.716Z,0
2018-01-17T05:16:02.567Z,0
2018-01-17T05:17:02.792Z,0
2018-01-17T05:18:02.783Z,0
2018-01-17T05:19:02.524Z,0
2018-01-17T05:20:02.773Z,0
2018-01-17T05:21:02.761Z,0
2018-01-17T05:22:02.512Z,0
2018-01-17T05:23:02.487Z,0
2018-01-17T05:24:02.482Z,0
2018-01-17T05:25:02.461Z,0
2018-01-17T05:26:02.458Z,0
2018-01-17T05:27:02.214Z,0
2018-01-17T05:28:02.187Z,0
2018-01-17T05:29:02.433Z,0
2018-01-17T05:30:02.437Z,0
2018-01-17T05:31:02.159Z,0
2018-01-17T05:32:02.410Z,0
2018-01-17T05:33:02.409Z,0
2018-01-17T05:34:02.396Z,0
2018-01-17T05:35:02.375Z,0
2018-01-17T05:36:02.382Z,0
2018-01-17T05:37:02.370Z,0
2018-01-17T05:38:02.102Z,0
2018-01-17T05:39:02.359Z,0
2018-01-17T05:40:02.098Z,0
2018-01-17T05:41:02.070Z,0
2018-01-17T05:42:02.114Z,0
2018-01-17T05:43:01.808Z,0
2018-01-17T05:44:02.294Z,0
2018-01-17T05:45:02.694Z,0
2018-01-17T05:46:02.533Z,0
2018-01-17T05:47:02.518Z,0
2018-01-17T05:48:02.010Z,0
2018-01-17T05:49:02.004Z,0
2018-01-17T05:50:02.265Z,0
2018-01-17T05:51:02.228Z,0
2018-01-17T05:52:02.221Z,0
2018-01-17T05:53:01.971Z,0
2018-01-17T05:54:01.734Z,0
2018-01-17T05:55:01.952Z,0
2018-01-17T05:56:02.453Z,0
2018-01-17T05:57:01.920Z,0
2018-01-17T05:58:02.428Z,0
2018-01-17T05:59:02.432Z,0
2018-01-17T06:00:01.901Z,0
2018-01-17T06:01:01.890Z,0
2018-01-17T06:02:02.131Z,0
2018-01-17T06:03:02.374Z,0
2018-01-17T06:04:02.382Z,0
2018-01-17T06:05:02.098Z,0
2018-01-17T06:06:02.092Z,0
2018-01-17T06:07:02.076Z,0
2018-01-17T06:08:02.321Z,0
2018-01-17T06:09:02.057Z,0
2018-01-17T06:10:01.802Z,0
2018-01-17T06:11:02.044Z,0
2018-01-17T06:12:02.032Z,0
2018-01-17T06:13:02.278Z,0
2018-01-17T06:14:02.013Z,0
2018-01-17T06:15:02.306Z,0
2018-01-17T06:16:01.491Z,0
2018-01-17T06:17:01.982Z,0
2018-01-17T06:18:02.222Z,0
2018-01-17T06:19:01.969Z,0
2018-01-17T06:20:01.712Z,0
2018-01-17T06:21:02.198Z,0
2018-01-17T06:22:02.194Z,0
2018-01-17T06:23:01.933Z,0
2018-01-17T06:24:02.173Z,0
2018-01-17T06:25:02.162Z,0
2018-01-17T06:26:01.910Z,0
2018-01-17T06:27:01.906Z,0
2018-01-17T06:28:01.640Z,0
2018-01-17T06:29:01.367Z,0
2018-01-17T06:30:01.861Z,0
2018-01-17T06:31:01.855Z,0
2018-01-17T06:32:01.851Z,0
2018-01-17T06:33:02.126Z,0
2018-01-17T06:34:01.573Z,0
2018-01-17T06:35:01.820Z,0
2018-01-17T06:36:02.053Z,0
2018-01-17T06:37:01.797Z,0
2018-01-17T06:38:02.035Z,0
2018-01-17T06:39:01.788Z,4
2018-01-17T06:40:01.764Z,4
2018-01-17T06:41:02.010Z,4
2018-01-17T06:42:02.005Z,4
2018-01-17T06:43:01.245Z,4
2018-01-17T06:44:01.729Z,0
2018-01-17T06:45:01.973Z,4
2018-01-17T06:46:02.106Z,4
2018-01-17T06:47:01.194Z,4
2018-01-17T06:48:01.948Z,4
2018-01-17T06:49:01.678Z,4
2018-01-17T06:50:01.417Z,8
2018-01-17T06:51:01.910Z,8
2018-01-17T06:52:01.646Z,8
2018-01-17T06:53:01.890Z,12
2018-01-17T06:54:01.377Z,16
2018-01-17T06:55:01.389Z,20
2018-01-17T06:56:01.612Z,24
2018-01-17T06:57:01.348Z,24
2018-01-17T06:58:01.592Z,28
2018-01-17T06:59:01.594Z,32
2018-01-17T07:00:01.073Z,36
2018-01-17T07:01:01.818Z,44
2018-01-17T07:02:01.625Z,56
2018-01-17T07:03:01.542Z,68
2018-01-17T07:04:01.787Z,80
2018-01-17T07:05:01.529Z,88
2018-01-17T07:06:01.264Z,92
2018-01-17T07:07:01.763Z,108
2018-01-17T07:08:01.300Z,112
2018-01-17T07:09:01.495Z,100
2018-01-17T07:10:01.492Z,56
2018-01-17T07:11:01.724Z,48
2018-01-17T07:12:01.491Z,52
2018-01-17T07:13:01.478Z,76
2018-01-17T07:14:01.446Z,92
2018-01-17T07:15:00.942Z,92
2018-01-17T07:16:01.838Z,96
2018-01-17T07:17:01.424Z,124
2018-01-17T07:18:01.654Z,156
2018-01-17T07:19:01.430Z,184
2018-01-17T07:20:01.138Z,204
2018-01-17T07:21:01.373Z,224
2018-01-17T07:22:01.378Z,240
2018-01-17T07:23:01.356Z,252
2018-01-17T07:24:01.340Z,284
2018-01-17T07:25:01.333Z,316
2018-01-17T07:26:01.070Z,320
2018-01-17T07:27:01.065Z,344
2018-01-17T07:28:01.581Z,340
2018-01-17T07:29:01.315Z,344
2018-01-17T07:30:01.290Z,348
2018-01-17T07:31:01.281Z,368
2018-01-17T07:32:01.530Z,424
2018-01-17T07:33:01.019Z,468
2018-01-17T07:34:00.748Z,512
2018-01-17T07:35:01.497Z,592
2018-01-17T07:36:00.728Z,668
2018-01-17T07:37:01.470Z,724
2018-01-17T07:38:01.463Z,760
2018-01-17T07:39:01.194Z,804
2018-01-17T07:40:01.188Z,860
2018-01-17T07:41:01.439Z,920
2018-01-17T07:42:01.165Z,964
2018-01-17T07:43:01.411Z,1016
2018-01-17T07:44:01.412Z,1060
2018-01-17T07:45:00.894Z,1124
2018-01-17T07:46:01.158Z,1172
2018-01-17T07:47:01.125Z,1232
2018-01-17T07:48:01.115Z,1288
2018-01-17T07:49:01.100Z,1344
2018-01-17T07:50:01.118Z,1308
2018-01-17T07:51:01.101Z,1160
2018-01-17T07:52:01.071Z,876
2018-01-17T07:53:01.065Z,672
2018-01-17T07:54:00.833Z,656
2018-01-17T07:55:01.038Z,792
2018-01-17T07:56:01.032Z,972
2018-01-17T07:57:01.277Z,1168
2018-01-17T07:58:01.283Z,1328
2018-01-17T07:59:01.001Z,1444
2018-01-17T08:00:01.235Z,1436
2018-01-17T08:01:00.975Z,1500
2018-01-17T08:02:00.973Z,1260
2018-01-17T08:03:00.963Z,1232
2018-01-17T08:04:00.694Z,1160
2018-01-17T08:05:00.962Z,1172
2018-01-17T08:06:01.229Z,1320
2018-01-17T08:07:00.420Z,1432
2018-01-17T08:08:00.929Z,1492
2018-01-17T08:09:00.649Z,1420
2018-01-17T08:10:00.893Z,1492
2018-01-17T08:11:00.887Z,1604
2018-01-17T08:12:00.376Z,1624
2018-01-17T08:13:01.123Z,1788
2018-01-17T08:14:01.110Z,1780
2018-01-17T08:15:00.850Z,1804
2018-01-17T08:16:00.581Z,1904
2018-01-17T08:17:00.477Z,2128
2018-01-17T08:18:01.070Z,2484
2018-01-17T08:19:00.822Z,2796
2018-01-17T08:20:01.056Z,3108
2018-01-17T08:21:00.784Z,3352
2018-01-17T08:22:00.828Z,3496
2018-01-17T08:23:00.276Z,3504
2018-01-17T08:24:00.518Z,3500
2018-01-17T08:25:00.753Z,2980
2018-01-17T08:26:01.000Z,2924
2018-01-17T08:27:00.988Z,2692
2018-01-17T08:28:00.228Z,2564
2018-01-17T08:29:00.469Z,2364
2018-01-17T08:30:00.961Z,2280
2018-01-17T08:31:00.703Z,2460
2018-01-17T08:32:01.001Z,2464
2018-01-17T08:33:00.930Z,2340
2018-01-17T08:34:00.677Z,2628
2018-01-17T08:35:00.923Z,2960
2018-01-17T08:36:00.662Z,2852
2018-01-17T08:37:32.257Z,3452
2018-01-17T08:38:00.656Z,3700
2018-01-17T08:39:00.890Z,3984
2018-01-17T08:40:00.615Z,4084
2018-01-17T08:41:00.866Z,3972
2018-01-17T08:42:00.869Z,3832
2018-01-17T08:43:00.347Z,3848
2018-01-17T08:44:00.849Z,3932
2018-01-17T08:45:00.833Z,4056
2018-01-17T08:46:00.330Z,4132
2018-01-17T08:47:00.711Z,4120
2018-01-17T08:48:00.310Z,3992
2018-01-17T08:49:00.537Z,3880
2018-01-17T08:50:00.782Z,3732
2018-01-17T08:51:00.533Z,3564
2018-01-17T08:52:00.017Z,3428
2018-01-17T08:53:00.511Z,3324
2018-01-17T08:54:00.755Z,3140
2018-01-17T08:55:00.489Z,2820
2018-01-17T08:56:00.483Z,2668
2018-01-17T08:57:00.728Z,2372
2018-01-17T08:58:00.209Z,1828
2018-01-17T08:59:00.456Z,1192
2018-01-17T09:00:00.702Z,1180
2018-01-17T09:01:00.197Z,1300
2018-01-17T09:02:00.427Z,1480
2018-01-17T09:03:00.421Z,1600
2018-01-17T09:04:00.183Z,1624
2018-01-17T09:05:00.188Z,1668
2018-01-17T09:06:00.145Z,2032
2018-01-17T09:07:00.403Z,2588
2018-01-17T09:08:00.385Z,2856
2018-01-17T09:09:00.379Z,3028
2018-01-17T09:10:00.127Z,3100
2018-01-17T09:11:00.357Z,3096
2018-01-17T09:12:00.621Z,2956
2018-01-17T09:13:00.598Z,2820
2018-01-17T09:14:00.580Z,2608
2018-01-17T09:15:00.580Z,2444
2018-01-17T09:16:00.312Z,2264
2018-01-17T09:17:00.731Z,2120
2018-01-17T09:18:00.050Z,2108
2018-01-17T09:19:00.553Z,2072
2018-01-17T09:20:00.525Z,1976
2018-01-17T09:21:00.275Z,1824
2018-01-17T09:22:00.560Z,1644
2018-01-17T09:23:00.501Z,1380
2018-01-17T09:24:00.500Z,1104
2018-01-17T09:25:00.235Z,904
2018-01-17T09:26:00.492Z,776
2018-01-17T09:27:00.470Z,684
2018-01-17T09:28:00.468Z,584
2018-01-17T09:28:59.963Z,516
2018-01-17T09:30:00.201Z,468
2018-01-17T09:31:00.200Z,436
2018-01-17T09:31:59.926Z,404
2018-01-17T09:32:59.910Z,344
2018-01-17T09:34:00.157Z,316
2018-01-17T09:34:59.899Z,300
2018-01-17T09:35:59.897Z,304
2018-01-17T09:37:00.142Z,292
2018-01-17T09:38:00.118Z,256
2018-01-17T09:39:00.364Z,208
2018-01-17T09:40:00.356Z,168
2018-01-17T09:40:59.606Z,188
2018-01-17T09:42:00.345Z,204
2018-01-17T09:43:00.327Z,200
2018-01-17T09:43:59.811Z,176
2018-01-17T09:44:59.804Z,200
2018-01-17T09:45:59.796Z,228
2018-01-17T09:47:00.285Z,272
2018-01-17T09:48:00.047Z,320
2018-01-17T09:49:00.277Z,372
2018-01-17T09:50:00.031Z,468
2018-01-17T09:50:59.745Z,636
2018-01-17T09:51:59.985Z,880
2018-01-17T09:52:59.979Z,1108
2018-01-17T09:53:59.976Z,1392
2018-01-17T09:54:59.984Z,1664
2018-01-17T09:55:59.993Z,1908
2018-01-17T09:56:59.934Z,2132
2018-01-17T09:58:00.181Z,2416
2018-01-17T09:59:00.170Z,2676
2018-01-17T09:59:59.660Z,2928
2018-01-17T10:00:59.900Z,3200
2018-01-17T10:02:00.141Z,3472
2018-01-17T10:02:59.663Z,3744
2018-01-17T10:03:59.897Z,4044
2018-01-17T10:04:59.851Z,4320
2018-01-17T10:06:00.109Z,4592
2018-01-17T10:06:59.600Z,4748
2018-01-17T10:08:00.383Z,4864
2018-01-17T10:09:00.067Z,5012
2018-01-17T10:10:00.071Z,5132
2018-01-17T10:10:59.809Z,5192
2018-01-17T10:11:59.802Z,5228
2018-01-17T10:13:00.591Z,5292
2018-01-17T10:13:59.788Z,5428
2018-01-17T10:14:59.773Z,5620
2018-01-17T10:16:00.027Z,5772
2018-01-17T10:16:59.988Z,5948
2018-01-17T10:17:59.745Z,6096
2018-01-17T10:18:59.757Z,6248
2018-01-17T10:19:59.972Z,6276
2018-01-17T10:20:59.729Z,6208
2018-01-17T10:21:59.717Z,6420
2018-01-17T10:22:59.689Z,6540
2018-01-17T10:53:19.841Z,4732
2018-01-17T10:54:18.845Z,4392
2018-01-17T10:55:19.857Z,4200
2018-01-17T10:56:19.119Z,3868
2018-01-17T10:57:18.559Z,3764
2018-01-17T10:58:18.792Z,3700
2018-01-17T10:59:18.520Z,3560
2018-01-17T11:00:19.892Z,3412
2018-01-17T11:01:19.013Z,3356
2018-01-17T11:02:18.989Z,3440
2018-01-17T11:03:18.478Z,3624
2018-01-17T11:04:18.716Z,4168
2018-01-17T11:05:20.171Z,4572
2018-01-17T11:06:18.953Z,4480
2018-01-17T11:07:18.695Z,4740
2018-01-17T11:08:18.429Z,5140
2018-01-17T11:09:18.686Z,5992
2018-01-17T11:10:20.036Z,6092
2018-01-17T11:11:18.666Z,6036
2018-01-17T11:12:18.395Z,5720
2018-01-17T11:13:18.395Z,5568
2018-01-17T11:14:18.649Z,5408
2018-01-17T11:15:20.156Z,5344
2018-01-17T11:16:18.867Z,5400
2018-01-17T11:17:18.353Z,5380
2018-01-17T11:18:18.594Z,4948
2018-01-17T11:19:18.593Z,4840
2018-01-17T11:20:19.820Z,4848
2018-01-17T11:21:18.311Z,4784
2018-01-17T11:22:18.315Z,5208
2018-01-17T11:23:18.548Z,5300
2018-01-17T11:24:18.833Z,5220
2018-01-17T11:25:19.965Z,4964
2018-01-17T11:26:18.524Z,4872
2018-01-17T11:27:18.590Z,4504
2018-01-17T11:28:18.770Z,4520
2018-01-17T11:29:18.257Z,4404
2018-01-17T11:30:19.368Z,4380
2018-01-17T11:31:18.482Z,4664
2018-01-17T11:32:17.978Z,4896
2018-01-17T11:33:18.473Z,5456
2018-01-17T11:34:18.213Z,6272
2018-01-17T11:35:19.782Z,5880
2018-01-17T11:36:18.211Z,7244
2018-01-17T11:37:18.693Z,7064
2018-01-17T11:38:18.426Z,6960
2018-01-17T11:39:18.411Z,5360
2018-01-17T11:40:19.547Z,5120
2018-01-17T11:41:18.741Z,4736
2018-01-17T11:42:18.397Z,4484
2018-01-17T11:43:18.409Z,4592
2018-01-17T11:44:18.142Z,4516
2018-01-17T11:45:19.528Z,4512
2018-01-17T11:46:18.360Z,4320
2018-01-17T11:47:18.355Z,4368
2018-01-17T11:48:18.646Z,4388
2018-01-17T11:49:18.591Z,4400
2018-01-17T11:50:19.357Z,4460
2018-01-17T11:51:18.328Z,5068
2018-01-17T11:52:18.313Z,5680
2018-01-17T11:53:18.079Z,5572
2018-01-17T11:54:18.327Z,5540
2018-01-17T11:55:19.411Z,5544
2018-01-17T11:56:17.781Z,5636
2018-01-17T11:57:18.519Z,5688
2018-01-17T11:58:18.024Z,5620
2018-01-17T11:59:18.254Z,5708
2018-01-17T12:00:19.021Z,5812
2018-01-17T12:01:18.010Z,5956
2018-01-17T12:02:18.247Z,6480
2018-01-17T12:03:18.483Z,6308
2018-01-17T12:04:18.467Z,5672
2018-01-17T12:05:18.619Z,6220
2018-01-17T12:06:18.209Z,5484
2018-01-17T12:07:17.972Z,5248
2018-01-17T12:08:18.206Z,5116
2018-01-17T12:09:18.435Z,4592
2018-01-17T12:10:19.175Z,4224
2018-01-17T12:11:18.165Z,4224
2018-01-17T12:12:17.900Z,3760
2018-01-17T12:13:17.909Z,3376
2018-01-17T12:14:18.466Z,3284
2018-01-17T12:15:18.665Z,3492
2018-01-17T12:16:18.155Z,3300
2018-01-17T12:17:18.111Z,3016
2018-01-17T12:18:18.106Z,2788
2018-01-17T12:19:18.389Z,2656
2018-01-17T12:20:18.673Z,3316
2018-01-17T12:21:17.859Z,3316
2018-01-17T12:22:18.319Z,3240
2018-01-17T12:23:18.088Z,3392
2018-01-17T12:24:18.762Z,3916
2018-01-17T12:25:18.355Z,4552
2018-01-17T12:26:18.290Z,4740
2018-01-17T12:27:18.082Z,5176
2018-01-17T12:28:18.324Z,5084
2018-01-17T12:29:18.424Z,5004
2018-01-17T12:30:18.572Z,4888
2018-01-17T12:31:18.089Z,4844
2018-01-17T12:32:17.791Z,4728
2018-01-17T12:33:18.230Z,4792
2018-01-17T12:34:18.447Z,4420
2018-01-17T12:35:18.866Z,4104
2018-01-17T12:36:17.955Z,3388
2018-01-17T12:37:17.721Z,2176
2018-01-17T12:38:18.228Z,1552
2018-01-17T12:39:19.125Z,1388
2018-01-17T12:40:19.105Z,1408
2018-01-17T12:41:18.009Z,1704
2018-01-17T12:42:17.396Z,2076
2018-01-17T12:43:18.170Z,2352
2018-01-17T12:44:17.629Z,2588
2018-01-17T12:45:19.157Z,2388
2018-01-17T12:46:17.879Z,2084
2018-01-17T12:47:17.625Z,1888
2018-01-17T12:48:18.102Z,1820
2018-01-17T12:49:17.824Z,1856
2018-01-17T12:50:18.681Z,1824
2018-01-17T12:51:18.114Z,1844
2018-01-17T12:52:17.813Z,1808
2018-01-17T12:53:17.625Z,1696
2018-01-17T12:54:17.560Z,1604
2018-01-17T12:55:18.779Z,1668
2018-01-17T12:56:18.041Z,2064
2018-01-17T12:57:17.546Z,2428
2018-01-17T12:58:17.531Z,2596
2018-01-17T12:59:17.528Z,2836
2018-01-17T13:00:20.126Z,2936
2018-01-17T13:01:17.479Z,3036
2018-01-17T13:02:17.467Z,3100
2018-01-17T13:03:18.018Z,3076
2018-01-17T13:04:17.958Z,2948
2018-01-17T13:05:19.304Z,2908
2018-01-17T13:06:17.692Z,2992
2018-01-17T13:07:17.927Z,3012
2018-01-17T13:08:17.676Z,3144
2018-01-17T13:09:17.416Z,3200
2018-01-17T13:10:19.040Z,3404
2018-01-17T13:11:17.895Z,3456
2018-01-17T13:12:17.646Z,3388
2018-01-17T13:13:17.392Z,3208
2018-01-17T13:14:17.941Z,2804
2018-01-17T13:15:18.608Z,2512
2018-01-17T13:16:17.858Z,2408
2018-01-17T13:17:17.615Z,2604
2018-01-17T13:18:17.595Z,2892
2018-01-17T13:19:17.318Z,3012
2018-01-17T13:20:19.011Z,2972
2018-01-17T13:21:17.571Z,2828
2018-01-17T13:22:17.048Z,2608
2018-01-17T13:23:17.542Z,2480
2018-01-17T13:24:17.549Z,2544
2018-01-17T13:25:19.095Z,2668
2018-01-17T13:26:17.524Z,2816
2018-01-17T13:27:17.778Z,2968
2018-01-17T13:28:17.510Z,3100
2018-01-17T13:29:17.502Z,3144
2018-01-17T13:30:18.634Z,3016
2018-01-17T13:31:17.307Z,3000
2018-01-17T13:32:17.498Z,3196
2018-01-17T13:33:17.744Z,3284
2018-01-17T13:34:17.463Z,3396
2018-01-17T13:35:18.456Z,3504
2018-01-17T13:36:17.685Z,3568
2018-01-17T13:37:17.418Z,3588
2018-01-17T13:38:17.676Z,3536
2018-01-17T13:39:17.811Z,3476
2018-01-17T13:40:18.428Z,3468
2018-01-17T13:41:17.135Z,3444
2018-01-17T13:42:17.652Z,3392
2018-01-17T13:43:17.375Z,3356
2018-01-17T13:44:17.614Z,3352
2018-01-17T13:45:18.486Z,3040
2018-01-17T13:46:17.613Z,2780
2018-01-17T13:47:17.341Z,2536
2018-01-17T13:48:17.598Z,2220
2018-01-17T13:49:17.325Z,2060
2018-01-17T13:50:18.548Z,1800
2018-01-17T13:51:17.316Z,1740
2018-01-17T13:52:17.316Z,1888
2018-01-17T13:53:17.285Z,2144
2018-01-17T13:54:17.538Z,2432
2018-01-17T13:55:18.977Z,2532
2018-01-17T13:56:17.013Z,2432
2018-01-17T13:57:17.011Z,2308
2018-01-17T13:58:17.255Z,2320
2018-01-17T13:59:17.520Z,2440
2018-01-17T14:00:18.861Z,2720
2018-01-17T14:01:17.536Z,2904
2018-01-17T14:02:17.213Z,2816
2018-01-17T14:03:17.465Z,2744
2018-01-17T14:04:17.213Z,2548
2018-01-17T14:05:18.950Z,2348
2018-01-17T14:06:17.453Z,2240
2018-01-17T14:07:17.173Z,2200
2018-01-17T14:08:17.166Z,2200
2018-01-17T14:09:17.427Z,2264
2018-01-17T14:10:18.338Z,2416
2018-01-17T14:11:16.898Z,2548
2018-01-17T14:12:16.890Z,2656
2018-01-17T14:13:17.140Z,2740
2018-01-17T14:14:17.365Z,2736
2018-01-17T14:15:19.243Z,2668
2018-01-17T14:16:17.176Z,2604
2018-01-17T14:17:16.844Z,2628
2018-01-17T14:18:17.100Z,2840
2018-01-17T14:19:17.099Z,3128
2018-01-17T14:20:18.288Z,3324
2018-01-17T14:21:17.077Z,3264
2018-01-17T14:22:17.059Z,3232
2018-01-17T14:23:17.312Z,2952
2018-01-17T14:24:17.304Z,2572
2018-01-17T14:25:18.648Z,2292
2018-01-17T14:26:17.035Z,2084
2018-01-17T14:27:17.016Z,1808
2018-01-17T14:28:16.755Z,1540
2018-01-17T14:29:17.012Z,1280
2018-01-17T14:30:18.188Z,1164
2018-01-17T14:31:17.254Z,1128
2018-01-17T14:32:16.980Z,1136